createdAt,value
2023-06-18T00:02:15.752Z,3.90
2023-06-18T00:04:42.594Z,3.90
2023-06-18T00:07:09.477Z,3.80
2023-06-18T00:09:36.336Z,3.67
2023-06-18T00:12:03.233Z,3.70
2023-06-18T00:14:30.253Z,3.25
2023-06-18T00:16:57.060Z,3.28
2023-06-18T00:19:23.908Z,3.40
2023-06-18T00:21:50.936Z,3.28
2023-06-18T00:24:17.758Z,3.90
2023-06-18T00:26:44.593Z,3.90
2023-06-18T00:29:11.516Z,4.30
2023-06-18T00:31:38.400Z,4.27
2023-06-18T00:34:05.401Z,4.10
2023-06-18T00:36:36.090Z,4.05
2023-06-18T00:39:03.001Z,4.45
2023-06-18T00:41:31.096Z,3.40
2023-06-18T00:43:58.723Z,4.17
2023-06-18T00:46:27.406Z,4.10
2023-06-18T00:48:55.297Z,4.18
2023-06-18T00:51:22.850Z,4.53
2023-06-18T00:53:50.122Z,4.03
2023-06-18T00:56:17.018Z,2.87
2023-06-18T00:58:43.920Z,2.83
2023-06-18T01:01:11.551Z,4.00
2023-06-18T01:03:38.969Z,3.20
2023-06-18T01:06:06.542Z,2.85
2023-06-18T01:08:33.713Z,3.47
2023-06-18T01:11:05.682Z,3.17
2023-06-18T01:13:34.635Z,3.58
2023-06-18T01:16:03.063Z,3.42
2023-06-18T01:18:30.860Z,3.63
2023-06-18T01:20:57.884Z,3.10
2023-06-18T01:23:31.527Z,4.22
2023-06-18T01:26:01.225Z,3.50
2023-06-18T01:28:28.778Z,3.60
2023-06-18T01:30:56.558Z,4.47
2023-06-18T01:33:23.596Z,3.37
2023-06-18T01:35:50.473Z,3.40
2023-06-18T01:38:33.355Z,2.90
2023-06-18T01:41:15.966Z,3.40
2023-06-18T01:43:55.259Z,2.92
2023-06-18T01:46:23.376Z,3.50
2023-06-18T01:48:56.258Z,3.28
2023-06-18T01:51:24.884Z,2.90
2023-06-18T01:53:54.432Z,2.90
2023-06-18T01:56:22.735Z,2.70
2023-06-18T01:58:49.570Z,2.93
2023-06-18T02:01:17.160Z,3.20
2023-06-18T02:03:44.259Z,3.38
2023-06-18T02:06:11.237Z,3.95
2023-06-18T02:08:38.259Z,3.95
2023-06-18T02:11:05.429Z,4.30
2023-06-18T02:13:32.364Z,4.65
2023-06-18T02:15:59.232Z,4.38
2023-06-18T02:18:26.180Z,3.33
2023-06-18T02:20:53.252Z,3.30
2023-06-18T02:23:20.209Z,3.27
2023-06-18T02:25:47.108Z,4.15
2023-06-18T02:28:13.975Z,4.55
2023-06-18T02:30:40.895Z,3.40
2023-06-18T02:33:08.083Z,3.58
2023-06-18T02:35:35.103Z,4.00
2023-06-18T02:38:01.933Z,3.42
2023-06-18T02:40:28.871Z,3.15
2023-06-18T02:42:55.736Z,3.00
2023-06-18T02:45:25.424Z,3.38
2023-06-18T02:47:52.356Z,4.60
2023-06-18T02:50:20.393Z,3.58
2023-06-18T02:52:47.927Z,4.32
2023-06-18T02:55:15.075Z,4.32
2023-06-18T02:57:42.952Z,4.80
2023-06-18T03:00:14.114Z,5.27
2023-06-18T03:02:42.722Z,5.10
2023-06-18T03:05:10.763Z,5.10
2023-06-18T03:07:37.807Z,4.85
2023-06-18T03:10:05.786Z,4.50
2023-06-18T03:12:32.805Z,5.10
2023-06-18T03:14:59.645Z,3.70
2023-06-18T03:17:26.652Z,4.70
2023-06-18T03:19:53.533Z,4.63
2023-06-18T03:22:20.356Z,5.10
2023-06-18T03:24:47.328Z,4.87
2023-06-18T03:27:14.191Z,5.38
2023-06-18T03:29:41.044Z,5.68
2023-06-18T03:32:08.053Z,5.65
2023-06-18T03:34:34.895Z,5.50
2023-06-18T03:37:02.102Z,5.73
2023-06-18T03:39:29.487Z,5.80
2023-06-18T03:41:56.472Z,5.15
2023-06-18T03:44:23.492Z,5.57
2023-06-18T03:46:51.151Z,5.70
2023-06-18T03:49:18.581Z,5.57
2023-06-18T03:51:45.485Z,5.60
2023-06-18T03:54:12.528Z,5.97
2023-06-18T03:56:39.487Z,5.60
2023-06-18T03:59:07.443Z,6.00
2023-06-18T04:01:34.620Z,5.70
2023-06-18T04:04:02.456Z,5.57
2023-06-18T04:06:29.296Z,5.85
2023-06-18T04:08:56.274Z,6.00
2023-06-18T04:11:23.120Z,5.78
2023-06-18T04:13:50.120Z,6.00
2023-06-18T04:16:17.165Z,6.68
2023-06-18T04:18:44.043Z,6.85
2023-06-18T04:21:10.960Z,6.40
2023-06-18T04:23:37.816Z,6.35
2023-06-18T04:26:04.679Z,6.03
2023-06-18T04:28:31.590Z,6.70
2023-06-18T04:30:58.429Z,5.10
2023-06-18T04:33:25.285Z,5.20
2023-06-18T04:35:52.037Z,5.55
2023-06-18T04:38:18.861Z,4.87
2023-06-18T04:40:45.701Z,5.50
2023-06-18T04:43:12.703Z,5.03
2023-06-18T04:45:39.617Z,5.20
2023-06-18T04:48:06.563Z,5.32
2023-06-18T04:50:33.386Z,5.67
2023-06-18T04:53:00.242Z,5.65
2023-06-18T04:55:27.076Z,6.38
2023-06-18T04:57:53.895Z,6.18
2023-06-18T05:00:21.150Z,5.70
2023-06-18T05:02:51.412Z,5.83
2023-06-18T05:05:18.370Z,5.93
2023-06-18T05:07:45.488Z,5.38
2023-06-18T05:10:12.350Z,5.35
2023-06-18T05:12:39.184Z,5.30
2023-06-18T05:15:07.783Z,5.73
2023-06-18T05:17:36.429Z,5.30
2023-06-18T05:20:04.132Z,6.05
2023-06-18T05:22:31.478Z,5.80
2023-06-18T05:24:58.339Z,5.43
2023-06-18T05:27:25.270Z,5.80
2023-06-18T05:29:52.451Z,7.20
2023-06-18T05:32:19.266Z,7.22
2023-06-18T05:34:46.074Z,6.93
2023-06-18T05:37:13.146Z,7.50
2023-06-18T05:39:39.974Z,6.47
2023-06-18T05:42:07.652Z,7.05
2023-06-18T05:44:34.703Z,6.60
2023-06-18T05:47:01.585Z,6.93
2023-06-18T05:49:28.415Z,6.50
2023-06-18T05:51:55.290Z,6.93
2023-06-18T05:54:22.150Z,7.05
2023-06-18T05:56:48.999Z,6.22
2023-06-18T05:59:15.855Z,8.10
2023-06-18T06:01:42.762Z,9.90
2023-06-18T06:04:09.806Z,9.50
2023-06-18T06:06:36.775Z,8.75
2023-06-18T06:09:03.829Z,8.82
2023-06-18T06:11:30.610Z,9.57
2023-06-18T06:13:57.619Z,9.27
2023-06-18T06:16:24.463Z,8.87
2023-06-18T06:18:51.351Z,8.82
2023-06-18T06:21:18.157Z,8.65
2023-06-18T06:23:44.979Z,8.80
2023-06-18T06:26:11.985Z,8.68
2023-06-18T06:28:39.774Z,8.83
2023-06-18T06:31:06.580Z,8.98
2023-06-18T06:33:33.454Z,8.38
2023-06-18T06:36:00.417Z,9.15
2023-06-18T06:38:27.202Z,8.43
2023-06-18T06:40:54.046Z,8.40
2023-06-18T06:43:20.970Z,7.82
2023-06-18T06:45:48.079Z,7.53
2023-06-18T06:48:15.000Z,7.68
2023-06-18T06:50:41.943Z,6.72
2023-06-18T06:53:08.753Z,6.57
2023-06-18T06:55:35.591Z,5.60
2023-06-18T06:58:02.480Z,6.03
2023-06-18T07:00:29.461Z,5.05
2023-06-18T07:02:56.374Z,4.90
2023-06-18T07:05:23.285Z,4.13
2023-06-18T07:07:50.116Z,4.80
2023-06-18T07:10:16.965Z,4.80
2023-06-18T07:12:44.051Z,4.30
2023-06-18T07:15:11.119Z,4.18
2023-06-18T07:17:37.985Z,4.57
2023-06-18T07:20:05.374Z,4.30
2023-06-18T07:22:32.205Z,4.70
2023-06-18T07:24:58.995Z,4.68
2023-06-18T07:27:26.097Z,5.03
2023-06-18T07:29:52.965Z,7.00
2023-06-18T07:32:22.611Z,6.40
2023-06-18T07:34:49.485Z,7.22
2023-06-18T07:37:16.276Z,6.65
2023-06-18T07:39:43.131Z,7.43
2023-06-18T07:42:10.237Z,5.93
2023-06-18T07:44:39.541Z,5.88
2023-06-18T07:47:09.713Z,6.15
2023-06-18T07:49:39.494Z,7.60
2023-06-18T07:52:07.076Z,9.45
2023-06-18T07:54:33.988Z,9.67
2023-06-18T07:57:01.039Z,10.70
2023-06-18T07:59:27.933Z,10.13
2023-06-18T08:01:54.831Z,10.52
2023-06-18T08:04:21.924Z,10.00
2023-06-18T08:06:48.898Z,10.87
2023-06-18T08:09:16.258Z,11.30
2023-06-18T08:11:46.402Z,9.88
2023-06-18T08:14:13.321Z,11.77
2023-06-18T08:16:40.752Z,10.80
2023-06-18T08:19:07.883Z,8.20
2023-06-18T08:21:34.849Z,9.15
2023-06-18T08:24:01.997Z,9.95
2023-06-18T08:26:29.029Z,10.10
2023-06-18T08:28:55.916Z,9.93
2023-06-18T08:31:22.791Z,11.33
2023-06-18T08:33:50.761Z,10.48
2023-06-18T08:36:21.064Z,11.25
2023-06-18T08:38:48.739Z,9.20
2023-06-18T08:41:16.095Z,7.30
2023-06-18T08:43:43.075Z,9.63
2023-06-18T08:46:11.948Z,9.25
2023-06-18T08:48:44.800Z,9.07
2023-06-18T08:51:12.356Z,10.32
2023-06-18T08:53:47.495Z,10.25
2023-06-18T08:56:17.924Z,10.77
2023-06-18T08:58:54.300Z,9.55
2023-06-18T09:01:21.724Z,10.82
2023-06-18T09:03:50.001Z,10.38
2023-06-18T09:06:17.184Z,9.30
2023-06-18T09:08:44.558Z,11.37
2023-06-18T09:11:11.584Z,10.02
2023-06-18T09:13:42.852Z,10.00
2023-06-18T09:16:10.611Z,9.80
2023-06-18T09:18:37.648Z,9.02
2023-06-18T09:21:04.777Z,9.00
2023-06-18T09:23:32.467Z,10.35
2023-06-18T09:26:00.208Z,10.60
2023-06-18T09:28:28.509Z,8.65
2023-06-18T09:31:00.002Z,9.90
2023-06-18T09:33:37.012Z,10.03
2023-06-18T09:36:08.968Z,10.00
2023-06-18T09:38:41.048Z,9.57
2023-06-18T09:41:35.009Z,8.75
2023-06-18T09:44:04.760Z,10.25
2023-06-18T09:46:31.829Z,9.20
2023-06-18T09:48:59.000Z,9.05
2023-06-18T09:51:26.727Z,9.50
2023-06-18T09:53:57.467Z,13.85
2023-06-18T09:56:24.412Z,9.93
2023-06-18T09:58:55.365Z,9.63
2023-06-18T10:01:25.196Z,9.57
2023-06-18T10:03:52.219Z,9.70
2023-06-18T10:06:23.551Z,9.05
2023-06-18T10:08:51.530Z,9.48
2023-06-18T10:11:21.064Z,9.63
2023-06-18T10:13:57.516Z,9.63
2023-06-18T10:16:31.631Z,9.25
2023-06-18T10:19:16.445Z,9.27
2023-06-18T10:21:50.927Z,8.63
2023-06-18T10:24:22.267Z,10.87
2023-06-18T10:26:50.037Z,10.88
2023-06-18T10:29:17.238Z,9.93
2023-06-18T10:31:46.109Z,10.18
2023-06-18T10:34:15.077Z,9.63
2023-06-18T10:36:42.840Z,9.80
2023-06-18T10:39:22.148Z,10.55
2023-06-18T10:41:56.127Z,10.23
2023-06-18T10:44:49.374Z,10.10
2023-06-18T10:47:20.653Z,9.27
2023-06-18T10:50:07.563Z,4.47
2023-06-18T10:52:43.098Z,3.10
2023-06-18T10:55:30.422Z,3.80
2023-06-18T10:58:06.680Z,3.90
2023-06-18T11:00:45.172Z,3.63
2023-06-18T11:03:19.085Z,4.27
2023-06-18T11:05:49.863Z,4.03
2023-06-18T11:08:27.059Z,3.80
2023-06-18T11:11:11.472Z,3.80
2023-06-18T11:13:47.485Z,3.70
2023-06-18T11:16:14.613Z,3.80
2023-06-18T11:18:42.561Z,4.82
2023-06-18T11:21:15.722Z,4.10
2023-06-18T11:23:43.503Z,4.00
2023-06-18T11:26:18.819Z,4.30
2023-06-18T11:28:47.311Z,4.57
2023-06-18T11:31:14.370Z,4.60
2023-06-18T11:33:46.628Z,5.30
2023-06-18T11:36:19.463Z,4.78
2023-06-18T11:38:47.273Z,4.80
2023-06-18T11:41:21.501Z,5.17
2023-06-18T11:43:51.951Z,4.72
2023-06-18T11:46:38.555Z,4.88
2023-06-18T11:49:14.074Z,5.43
2023-06-18T11:51:41.045Z,5.53
2023-06-18T11:54:07.939Z,5.33
2023-06-18T11:56:35.114Z,5.80
2023-06-18T11:59:03.389Z,5.80
2023-06-18T12:01:32.615Z,5.78
2023-06-18T12:04:07.605Z,5.78
2023-06-18T12:06:35.328Z,5.70
2023-06-18T12:09:09.559Z,6.43
2023-06-18T12:11:57.635Z,6.00
2023-06-18T12:14:52.786Z,7.97
2023-06-18T12:17:51.741Z,5.60
2023-06-18T12:20:26.892Z,7.27
2023-06-18T12:22:56.408Z,6.90
2023-06-18T12:25:26.824Z,5.57
2023-06-18T12:27:55.678Z,6.03
2023-06-18T12:30:37.114Z,6.03
2023-06-18T12:33:09.172Z,5.23
2023-06-18T12:35:37.335Z,5.03
2023-06-18T12:38:06.218Z,4.68
2023-06-18T12:40:33.925Z,5.10
2023-06-18T12:43:13.436Z,5.20
2023-06-18T12:45:40.942Z,5.20
2023-06-18T12:48:18.391Z,5.10
2023-06-18T12:50:49.635Z,5.00
2023-06-18T12:53:21.704Z,4.82
2023-06-18T12:55:56.708Z,5.40
2023-06-18T12:58:30.097Z,5.43
2023-06-18T13:01:00.650Z,4.97
2023-06-18T13:03:28.738Z,4.63
2023-06-18T13:05:57.670Z,4.28
2023-06-18T13:08:24.873Z,4.30
2023-06-18T13:10:53.537Z,4.20
2023-06-18T13:13:21.031Z,3.70
2023-06-18T13:15:50.262Z,4.05
2023-06-18T13:18:17.295Z,3.90
2023-06-18T13:20:44.498Z,4.40
2023-06-18T13:23:11.876Z,3.90
2023-06-18T13:25:40.699Z,5.22
2023-06-18T13:28:07.934Z,3.50
2023-06-18T13:30:35.200Z,4.10
2023-06-18T13:33:02.414Z,4.30
2023-06-18T13:35:29.372Z,3.47
2023-06-18T13:37:59.240Z,3.78
2023-06-18T13:40:27.388Z,3.60
2023-06-18T13:42:54.346Z,3.40
2023-06-18T13:45:22.960Z,3.90
2023-06-18T13:47:50.335Z,3.80
2023-06-18T13:50:17.267Z,3.05
2023-06-18T13:52:44.185Z,3.97
2023-06-18T13:55:11.103Z,3.63
2023-06-18T13:57:38.537Z,3.90
2023-06-18T14:00:06.420Z,4.27
2023-06-18T14:02:33.520Z,4.65
2023-06-18T14:05:00.759Z,4.50
2023-06-18T14:07:27.748Z,4.55
2023-06-18T14:09:54.667Z,4.20
2023-06-18T14:12:21.620Z,6.07
2023-06-18T14:14:48.701Z,4.30
2023-06-18T14:17:15.662Z,4.68
2023-06-18T14:19:42.510Z,4.93
2023-06-18T14:22:09.613Z,4.00
2023-06-18T14:24:36.770Z,3.60
2023-06-18T14:27:04.503Z,3.90
2023-06-18T14:29:32.196Z,4.20
2023-06-18T14:32:00.066Z,3.80
2023-06-18T14:34:27.021Z,3.90
2023-06-18T14:36:54.908Z,3.90
2023-06-18T14:39:21.955Z,3.65
2023-06-18T14:41:48.796Z,3.67
2023-06-18T14:44:15.811Z,3.90
2023-06-18T14:46:45.026Z,3.80
2023-06-18T14:49:11.913Z,3.50
2023-06-18T14:51:38.822Z,3.50
2023-06-18T14:54:06.012Z,3.72
2023-06-18T14:56:32.802Z,3.50
2023-06-18T14:58:59.720Z,6.63
2023-06-18T15:01:29.963Z,5.33
2023-06-18T15:03:57.048Z,8.32
2023-06-18T15:06:24.181Z,5.20
2023-06-18T15:08:51.183Z,7.40
2023-06-18T15:11:18.027Z,4.53
2023-06-18T15:13:44.903Z,3.97
2023-06-18T15:16:11.683Z,3.80
2023-06-18T15:18:38.557Z,4.30
2023-06-18T15:21:05.475Z,4.22
2023-06-18T15:23:32.620Z,4.60
2023-06-18T15:25:59.553Z,4.07
2023-06-18T15:28:26.383Z,4.55
2023-06-18T15:30:56.254Z,4.30
2023-06-18T15:33:28.472Z,4.88
2023-06-18T15:35:58.316Z,4.43
2023-06-18T15:38:28.290Z,10.13
2023-06-18T15:40:56.648Z,7.80
2023-06-18T15:43:23.630Z,6.32
2023-06-18T15:45:50.695Z,6.40
2023-06-18T15:48:17.838Z,4.03
2023-06-18T15:50:53.509Z,4.07
2023-06-18T15:53:20.735Z,4.47
2023-06-18T15:55:47.800Z,5.60
2023-06-18T15:58:15.773Z,4.30
2023-06-18T16:00:43.121Z,4.20
2023-06-18T16:03:10.069Z,4.33
2023-06-18T16:05:37.182Z,4.63
2023-06-18T16:08:04.316Z,4.60
2023-06-18T16:10:31.245Z,4.20
2023-06-18T16:12:58.135Z,4.28
2023-06-18T16:15:25.312Z,5.17
2023-06-18T16:17:52.623Z,4.32
2023-06-18T16:20:19.749Z,4.80
2023-06-18T16:22:46.650Z,4.50
2023-06-18T16:25:18.716Z,3.65
2023-06-18T16:27:45.768Z,3.70
2023-06-18T16:30:13.107Z,3.78
2023-06-18T16:32:40.066Z,3.45
2023-06-18T16:35:07.412Z,3.00
2023-06-18T16:37:34.211Z,3.08
2023-06-18T16:40:01.125Z,2.90
2023-06-18T16:42:28.188Z,5.03
2023-06-18T16:44:55.130Z,4.45
2023-06-18T16:47:22.218Z,7.07
2023-06-18T16:49:49.196Z,6.55
2023-06-18T16:52:16.048Z,11.33
2023-06-18T16:54:42.847Z,4.05
2023-06-18T16:57:09.728Z,4.88
2023-06-18T16:59:36.565Z,3.85
2023-06-18T17:02:03.563Z,3.88
2023-06-18T17:04:30.614Z,6.67
2023-06-18T17:06:57.527Z,4.00
2023-06-18T17:09:24.514Z,3.58
2023-06-18T17:11:51.369Z,3.00
2023-06-18T17:14:18.275Z,3.20
2023-06-18T17:16:45.241Z,2.83
2023-06-18T17:19:12.253Z,3.45
2023-06-18T17:21:39.100Z,3.65
2023-06-18T17:24:06.253Z,4.80
2023-06-18T17:26:33.938Z,6.35
2023-06-18T17:29:05.032Z,7.27
2023-06-18T17:31:32.565Z,5.55
2023-06-18T17:33:59.577Z,4.95
2023-06-18T17:36:30.498Z,4.13
2023-06-18T17:39:00.228Z,3.70
2023-06-18T17:41:27.065Z,3.33
2023-06-18T17:43:56.261Z,2.63
2023-06-18T17:46:23.393Z,2.35
2023-06-18T17:48:50.662Z,2.45
2023-06-18T17:51:18.361Z,2.67
2023-06-18T17:53:45.561Z,3.20
2023-06-18T17:56:12.778Z,2.90
2023-06-18T17:58:42.197Z,3.10
2023-06-18T18:01:09.441Z,2.90
2023-06-18T18:03:36.499Z,3.03
2023-06-18T18:06:04.142Z,3.03
2023-06-18T18:08:31.614Z,2.90
2023-06-18T18:10:58.682Z,3.20
2023-06-18T18:13:25.594Z,3.45
2023-06-18T18:15:54.749Z,3.05
2023-06-18T18:18:21.778Z,3.50
2023-06-18T18:20:50.951Z,3.70
2023-06-18T18:23:17.890Z,3.30
2023-06-18T18:25:45.496Z,3.30
2023-06-18T18:28:12.538Z,4.25
2023-06-18T18:30:39.557Z,4.13
2023-06-18T18:33:07.645Z,3.85
2023-06-18T18:35:35.170Z,4.40
2023-06-18T18:38:07.859Z,4.68
2023-06-18T18:40:34.748Z,4.82
2023-06-18T18:43:03.054Z,4.73
2023-06-18T18:45:30.046Z,5.22
2023-06-18T18:47:57.068Z,5.30
2023-06-18T18:50:24.338Z,4.60
2023-06-18T18:52:51.704Z,4.85
2023-06-18T18:55:18.572Z,4.30
2023-06-18T18:57:45.385Z,4.80
2023-06-18T19:00:16.476Z,4.30
2023-06-18T19:02:43.492Z,5.00
2023-06-18T19:05:10.444Z,4.65
2023-06-18T19:07:39.997Z,4.80
2023-06-18T19:10:07.768Z,4.80
2023-06-18T19:12:34.751Z,4.80
2023-06-18T19:15:04.830Z,4.68
2023-06-18T19:17:32.136Z,4.78
2023-06-18T19:19:59.089Z,4.40
2023-06-18T19:22:26.108Z,5.20
2023-06-18T19:24:56.673Z,4.68
2023-06-18T19:27:26.596Z,4.90
2023-06-18T19:29:55.851Z,5.10
2023-06-18T19:32:23.507Z,4.60
2023-06-18T19:34:50.620Z,4.88
2023-06-18T19:37:17.735Z,4.65
2023-06-18T19:39:44.655Z,4.50
2023-06-18T19:42:13.927Z,5.00
2023-06-18T19:44:40.871Z,4.43
2023-06-18T19:47:07.739Z,4.80
2023-06-18T19:49:34.654Z,4.90
2023-06-18T19:52:01.676Z,4.65
2023-06-18T19:54:28.788Z,4.88
2023-06-18T19:56:55.597Z,4.83
2023-06-18T19:59:22.566Z,4.40
2023-06-18T20:01:49.648Z,4.45
2023-06-18T20:04:16.707Z,4.40
2023-06-18T20:06:43.764Z,4.65
2023-06-18T20:09:10.727Z,4.33
2023-06-18T20:11:37.567Z,4.30
2023-06-18T20:14:04.587Z,4.38
2023-06-18T20:16:31.559Z,4.78
2023-06-18T20:18:58.557Z,4.40
2023-06-18T20:21:25.782Z,4.53
2023-06-18T20:23:52.862Z,4.80
2023-06-18T20:26:19.720Z,4.82
2023-06-18T20:28:46.639Z,4.70
2023-06-18T20:31:13.611Z,4.45
2023-06-18T20:33:40.515Z,4.20
2023-06-18T20:36:07.367Z,4.65
2023-06-18T20:38:34.310Z,4.00
2023-06-18T20:41:01.190Z,3.83
2023-06-18T20:43:28.310Z,4.15
2023-06-18T20:45:55.222Z,3.73
2023-06-18T20:48:22.167Z,3.67
2023-06-18T20:50:49.151Z,4.07
2023-06-18T20:53:15.996Z,3.65
2023-06-18T20:55:42.962Z,4.00
2023-06-18T20:58:10.098Z,4.27
2023-06-18T21:00:36.933Z,4.50
2023-06-18T21:03:04.026Z,4.00
2023-06-18T21:05:31.132Z,4.10
2023-06-18T21:07:57.963Z,4.55
2023-06-18T21:10:25.042Z,4.50
2023-06-18T21:12:52.147Z,4.38
2023-06-18T21:15:18.929Z,4.20
2023-06-18T21:17:45.753Z,4.20
2023-06-18T21:20:12.742Z,4.32
2023-06-18T21:22:39.635Z,4.43
2023-06-18T21:25:06.878Z,4.55
2023-06-18T21:27:33.725Z,4.78
2023-06-18T21:30:00.711Z,4.80
2023-06-18T21:32:27.545Z,4.55
2023-06-18T21:34:54.476Z,4.90
2023-06-18T21:37:21.298Z,5.00
2023-06-18T21:39:49.598Z,4.88
2023-06-18T21:42:16.711Z,5.07
2023-06-18T21:44:43.675Z,4.75
2023-06-18T21:47:13.067Z,4.73
2023-06-18T21:49:39.959Z,5.10
2023-06-18T21:52:07.103Z,4.88
2023-06-18T21:54:38.758Z,4.30
2023-06-18T21:57:05.796Z,4.72
2023-06-18T21:59:32.616Z,4.80
2023-06-18T22:01:59.571Z,4.80
2023-06-18T22:04:26.421Z,5.00
2023-06-18T22:06:53.211Z,4.75
2023-06-18T22:09:20.149Z,4.80
2023-06-18T22:11:48.842Z,5.00
2023-06-18T22:14:16.980Z,4.90
2023-06-18T22:16:43.858Z,5.40
2023-06-18T22:19:12.719Z,4.88
2023-06-18T22:21:40.365Z,4.97
2023-06-18T22:24:07.348Z,5.30
2023-06-18T22:26:34.250Z,5.38
2023-06-18T22:29:01.102Z,5.20
2023-06-18T22:31:28.076Z,5.55
2023-06-18T22:33:55.465Z,5.32
2023-06-18T22:36:22.353Z,5.43
2023-06-18T22:38:49.127Z,5.30
2023-06-18T22:41:16.032Z,5.68
2023-06-18T22:43:43.628Z,5.80
2023-06-18T22:46:10.666Z,5.68
2023-06-18T22:48:37.747Z,6.03
2023-06-18T22:51:04.539Z,5.45
2023-06-18T22:53:31.397Z,5.82
2023-06-18T22:55:58.533Z,5.80
2023-06-18T22:58:25.379Z,5.80
2023-06-18T23:00:52.213Z,6.23
2023-06-18T23:03:19.894Z,5.82
2023-06-18T23:05:46.828Z,5.93
2023-06-18T23:08:13.699Z,6.35
2023-06-18T23:10:40.652Z,6.25
2023-06-18T23:13:07.508Z,6.53
2023-06-18T23:15:34.441Z,5.72
2023-06-18T23:18:01.578Z,5.78
2023-06-18T23:20:28.914Z,6.32
2023-06-18T23:22:55.920Z,6.05
2023-06-18T23:25:22.854Z,5.77
2023-06-18T23:27:49.688Z,6.18
2023-06-18T23:30:16.693Z,6.20
2023-06-18T23:32:43.863Z,6.13
2023-06-18T23:35:11.251Z,6.20
2023-06-18T23:37:38.165Z,6.07
2023-06-18T23:40:05.593Z,5.93
2023-06-18T23:42:32.382Z,5.60
2023-06-18T23:44:59.232Z,5.55
2023-06-18T23:47:26.119Z,5.22
2023-06-18T23:49:52.974Z,5.33
2023-06-18T23:52:19.928Z,5.72
2023-06-18T23:54:46.867Z,5.45
2023-06-18T23:57:13.698Z,5.32
2023-06-18T23:59:40.608Z,5.30
